createdAt,value
2023-01-04T00:00:18.151Z,23.27
2023-01-04T00:02:46.808Z,22.60
2023-01-04T00:05:15.372Z,21.17
2023-01-04T00:07:43.901Z,21.17
2023-01-04T00:10:13.831Z,20.00
2023-01-04T00:12:42.777Z,20.83
2023-01-04T00:15:12.035Z,19.73
2023-01-04T00:17:40.557Z,19.03
2023-01-04T00:20:09.916Z,19.53
2023-01-04T00:22:38.580Z,20.13
2023-01-04T00:25:07.928Z,19.07
2023-01-04T00:27:37.789Z,17.57
2023-01-04T00:30:07.175Z,18.83
2023-01-04T00:32:35.738Z,16.43
2023-01-04T00:35:04.283Z,16.20
2023-01-04T00:37:33.006Z,16.97
2023-01-04T00:40:01.620Z,16.13
2023-01-04T00:42:30.245Z,16.47
2023-01-04T00:45:00.158Z,18.53
2023-01-04T00:47:29.852Z,18.27
2023-01-04T00:49:58.402Z,18.53
2023-01-04T00:52:28.063Z,15.70
2023-01-04T00:54:56.605Z,16.07
2023-01-04T00:57:25.107Z,16.93
2023-01-04T00:59:53.619Z,14.30
2023-01-04T01:02:23.629Z,15.10
2023-01-04T01:04:52.357Z,14.60
2023-01-04T01:07:20.921Z,15.53
2023-01-04T01:09:49.454Z,48.30
2023-01-04T01:12:18.016Z,47.80
2023-01-04T01:14:46.588Z,30.83
2023-01-04T01:17:15.299Z,20.87
2023-01-04T01:19:45.281Z,19.27
2023-01-04T01:22:16.200Z,17.23
2023-01-04T01:24:44.846Z,16.17
2023-01-04T01:27:13.395Z,16.50
2023-01-04T01:29:41.905Z,16.03
2023-01-04T01:32:10.479Z,14.47
2023-01-04T01:34:39.093Z,14.57
2023-01-04T01:37:09.017Z,14.40
2023-01-04T01:39:37.510Z,15.07
2023-01-04T01:42:06.021Z,14.30
2023-01-04T01:45:10.964Z,13.47
2023-01-04T01:47:42.691Z,13.70
2023-01-04T01:50:20.750Z,12.20
2023-01-04T01:52:51.167Z,13.47
2023-01-04T01:55:19.723Z,12.73
2023-01-04T01:57:50.935Z,18.60
2023-01-04T02:00:19.742Z,22.20
2023-01-04T02:02:59.350Z,21.27
2023-01-04T02:05:28.837Z,17.13
2023-01-04T02:07:58.952Z,16.83
2023-01-04T02:10:28.260Z,14.90
2023-01-04T02:12:56.803Z,13.10
2023-01-04T02:15:27.760Z,14.63
2023-01-04T02:18:02.046Z,13.60
2023-01-04T02:20:40.473Z,12.80
2023-01-04T02:23:36.854Z,22.50
2023-01-04T02:26:59.592Z,34.20
2023-01-04T02:30:16.099Z,21.83
2023-01-04T02:32:56.394Z,14.80
2023-01-04T02:35:29.452Z,13.10
2023-01-04T02:38:04.525Z,11.13
2023-01-04T02:40:49.644Z,10.23
2023-01-04T02:43:42.016Z,12.03
2023-01-04T02:46:15.338Z,10.27
2023-01-04T02:49:02.712Z,9.63
2023-01-04T02:51:33.402Z,9.73
2023-01-04T02:54:05.218Z,10.20
2023-01-04T02:57:15.160Z,11.23
2023-01-04T03:00:04.101Z,11.10
2023-01-04T03:03:14.615Z,10.60
2023-01-04T03:06:09.288Z,11.13
2023-01-04T03:08:41.127Z,9.83
2023-01-04T03:11:32.158Z,11.07
2023-01-04T03:14:01.952Z,11.53
2023-01-04T03:16:52.099Z,10.97
2023-01-04T03:19:48.890Z,10.37
2023-01-04T03:22:38.693Z,11.17
2023-01-04T03:25:25.964Z,11.47
2023-01-04T03:28:13.439Z,11.93
2023-01-04T03:31:04.912Z,11.60
2023-01-04T03:33:51.436Z,11.20
2023-01-04T03:36:33.049Z,10.60
2023-01-04T03:39:23.673Z,10.63
2023-01-04T03:42:14.677Z,11.17
2023-01-04T03:45:10.091Z,10.07
2023-01-04T03:48:00.261Z,11.10
2023-01-04T03:50:32.196Z,11.70
2023-01-04T03:53:01.026Z,11.27
2023-01-04T03:55:32.473Z,13.13
2023-01-04T03:58:01.791Z,17.47
2023-01-04T04:00:30.720Z,18.20
2023-01-04T04:03:07.422Z,15.53
2023-01-04T04:05:56.914Z,12.90
2023-01-04T04:08:29.104Z,11.53
2023-01-04T04:11:22.103Z,11.57
2023-01-04T04:13:51.581Z,10.33
2023-01-04T04:16:20.830Z,9.63
2023-01-04T04:18:49.486Z,10.23
2023-01-04T04:21:18.139Z,10.13
2023-01-04T04:23:46.738Z,9.80
2023-01-04T04:26:16.762Z,8.67
2023-01-04T04:28:45.454Z,9.60
2023-01-04T04:31:14.467Z,9.90
2023-01-04T04:33:43.080Z,8.83
2023-01-04T04:36:12.790Z,9.03
2023-01-04T04:38:41.285Z,9.77
2023-01-04T04:41:28.148Z,8.47
2023-01-04T04:43:59.063Z,8.50
2023-01-04T04:46:28.217Z,9.57
2023-01-04T04:48:56.798Z,8.77
2023-01-04T04:51:25.313Z,10.23
2023-01-04T04:53:53.995Z,9.03
2023-01-04T04:56:22.655Z,10.03
2023-01-04T04:58:51.551Z,8.73
2023-01-04T05:01:21.650Z,9.60
2023-01-04T05:03:50.315Z,9.80
2023-01-04T05:06:19.017Z,10.83
2023-01-04T05:08:47.674Z,14.20
2023-01-04T05:11:16.436Z,14.77
2023-01-04T05:13:43.957Z,13.80
2023-01-04T05:16:12.578Z,14.17
2023-01-04T05:18:42.522Z,16.07
2023-01-04T05:21:14.448Z,11.90
2023-01-04T05:23:45.451Z,10.50
2023-01-04T05:26:13.981Z,9.13
2023-01-04T05:28:44.136Z,9.20
2023-01-04T05:31:14.848Z,7.90
2023-01-04T05:33:44.841Z,7.17
2023-01-04T05:36:13.361Z,8.17
2023-01-04T05:38:41.882Z,7.13
2023-01-04T05:41:30.516Z,8.53
2023-01-04T05:43:59.025Z,6.70
2023-01-04T05:46:27.637Z,6.87
2023-01-04T05:48:57.726Z,7.17
2023-01-04T05:51:26.176Z,7.40
2023-01-04T05:53:54.667Z,7.60
2023-01-04T05:56:23.161Z,14.43
2023-01-04T05:58:51.645Z,16.57
2023-01-04T06:01:20.201Z,11.37
2023-01-04T06:03:48.878Z,8.63
2023-01-04T06:06:19.008Z,8.30
2023-01-04T06:08:54.777Z,8.60
2023-01-04T06:11:27.541Z,8.63
2023-01-04T06:13:56.537Z,8.07
2023-01-04T06:16:25.192Z,8.53
2023-01-04T06:18:54.154Z,7.77
2023-01-04T06:21:25.426Z,7.50
2023-01-04T06:23:54.257Z,9.60
2023-01-04T06:26:22.824Z,9.67
2023-01-04T06:28:51.315Z,12.17
2023-01-04T06:31:19.976Z,12.33
2023-01-04T06:33:48.554Z,12.07
2023-01-04T06:36:19.852Z,14.50
2023-01-04T06:38:50.920Z,10.40
2023-01-04T06:41:19.709Z,7.80
2023-01-04T06:43:48.268Z,7.40
2023-01-04T06:46:16.980Z,7.90
2023-01-04T06:48:45.570Z,6.90
2023-01-04T06:51:14.148Z,8.87
2023-01-04T06:53:42.674Z,8.23
2023-01-04T06:56:12.639Z,7.90
2023-01-04T06:58:41.355Z,6.97
2023-01-04T07:01:10.103Z,7.70
2023-01-04T07:03:38.853Z,8.17
2023-01-04T07:06:08.591Z,8.23
2023-01-04T07:08:37.322Z,8.10
2023-01-04T07:11:06.100Z,16.33
2023-01-04T07:13:36.034Z,12.60
2023-01-04T07:16:04.654Z,8.03
2023-01-04T07:18:33.174Z,7.33
2023-01-04T07:21:02.159Z,15.47
2023-01-04T07:23:30.700Z,22.50
2023-01-04T07:26:02.854Z,16.60
2023-01-04T07:28:49.067Z,12.10
2023-01-04T07:31:19.137Z,12.17
2023-01-04T07:33:50.822Z,8.73
2023-01-04T07:36:19.464Z,10.33
2023-01-04T07:38:48.103Z,14.97
2023-01-04T07:41:16.623Z,15.47
2023-01-04T07:43:46.966Z,18.03
2023-01-04T07:46:18.800Z,13.40
2023-01-04T07:48:48.823Z,10.93
2023-01-04T07:51:17.658Z,9.83
2023-01-04T07:53:46.212Z,8.60
2023-01-04T07:56:18.662Z,7.43
2023-01-04T07:58:47.405Z,7.73
2023-01-04T08:01:18.724Z,7.60
2023-01-04T08:03:48.875Z,7.50
2023-01-04T08:06:18.236Z,7.63
2023-01-04T08:08:46.815Z,8.53
2023-01-04T08:11:17.148Z,9.60
2023-01-04T08:13:45.910Z,42.17
2023-01-04T08:16:22.045Z,38.23
2023-01-04T08:18:54.276Z,18.87
2023-01-04T08:21:23.406Z,18.00
2023-01-04T08:23:52.248Z,16.50
2023-01-04T08:26:21.682Z,15.87
2023-01-04T08:28:52.735Z,16.17
2023-01-04T08:31:23.342Z,14.60
2023-01-04T08:33:54.034Z,15.43
2023-01-04T08:36:27.556Z,16.97
2023-01-04T08:39:01.096Z,14.57
2023-01-04T08:44:19.447Z,26.77
2023-01-04T08:46:48.610Z,16.50
2023-01-04T08:49:18.763Z,16.17
2023-01-04T08:51:48.139Z,11.80
2023-01-04T08:54:17.069Z,10.53
2023-01-04T08:56:45.627Z,10.33
2023-01-04T08:59:14.536Z,15.83
2023-01-04T09:01:43.431Z,19.27
2023-01-04T09:04:12.080Z,13.20
2023-01-04T09:06:42.734Z,11.33
2023-01-04T09:09:11.364Z,9.03
2023-01-04T09:11:39.948Z,9.50
2023-01-04T09:14:10.450Z,8.80
2023-01-04T09:16:39.615Z,9.53
2023-01-04T09:19:08.462Z,10.60
2023-01-04T09:21:37.014Z,10.27
2023-01-04T09:24:07.389Z,8.73
2023-01-04T09:26:36.026Z,8.10
2023-01-04T09:29:05.261Z,8.10
2023-01-04T09:31:34.248Z,8.33
2023-01-04T09:34:18.450Z,8.07
2023-01-04T09:36:48.215Z,11.27
2023-01-04T09:39:23.107Z,9.53
2023-01-04T09:41:57.668Z,9.57
2023-01-04T09:45:12.189Z,8.57
2023-01-04T09:47:30.522Z,8.73
2023-01-04T09:50:01.306Z,8.37
2023-01-04T09:52:42.226Z,8.90
2023-01-04T09:55:39.684Z,8.10
2023-01-04T09:58:19.395Z,8.20
2023-01-04T10:00:50.635Z,7.67
2023-01-04T10:03:22.329Z,7.13
2023-01-04T10:05:51.705Z,6.37
2023-01-04T10:08:21.089Z,6.33
2023-01-04T10:10:57.472Z,6.73
2023-01-04T10:13:38.335Z,8.07
2023-01-04T10:16:17.697Z,7.00
2023-01-04T10:19:50.875Z,6.83
2023-01-04T10:21:50.679Z,7.33
2023-01-04T10:24:36.462Z,6.37
2023-01-04T10:27:09.536Z,9.40
2023-01-04T10:29:43.613Z,7.37
2023-01-04T10:32:20.523Z,8.17
2023-01-04T10:34:49.614Z,11.43
2023-01-04T10:37:21.848Z,9.63
2023-01-04T10:39:55.135Z,16.10
2023-01-04T10:42:33.361Z,12.63
2023-01-04T10:45:13.600Z,8.27
2023-01-04T10:47:47.870Z,7.67
2023-01-04T10:50:20.185Z,6.97
2023-01-04T10:52:51.934Z,5.43
2023-01-04T10:55:26.141Z,5.67
2023-01-04T10:58:00.252Z,5.80
2023-01-04T11:00:32.075Z,6.73
2023-01-04T11:03:08.789Z,7.20
2023-01-04T11:05:40.561Z,6.00
2023-01-04T11:08:13.616Z,6.00
2023-01-04T11:10:44.931Z,5.47
2023-01-04T11:13:14.937Z,5.93
2023-01-04T11:15:45.415Z,5.60
2023-01-04T11:18:14.324Z,5.87
2023-01-04T11:20:43.058Z,4.97
2023-01-04T11:23:15.394Z,5.00
2023-01-04T11:25:53.622Z,6.03
2023-01-04T11:28:30.170Z,5.00
2023-01-04T11:31:04.884Z,6.67
2023-01-04T11:33:52.924Z,5.30
2023-01-04T11:36:35.592Z,5.63
2023-01-04T11:39:05.867Z,5.23
2023-01-04T11:41:34.518Z,5.00
2023-01-04T11:44:06.925Z,6.67
2023-01-04T11:46:36.171Z,6.47
2023-01-04T11:49:05.863Z,5.77
2023-01-04T11:51:40.964Z,5.93
2023-01-04T11:54:20.647Z,5.20
2023-01-04T11:57:00.705Z,5.40
2023-01-04T11:59:31.011Z,6.13
2023-01-04T12:02:50.625Z,4.23
2023-01-04T12:08:07.975Z,4.37
2023-01-04T12:10:36.489Z,4.07
2023-01-04T12:13:05.073Z,2.93
2023-01-04T12:15:41.149Z,5.03
2023-01-04T12:18:12.992Z,3.27
2023-01-04T12:20:41.469Z,3.80
2023-01-04T12:23:10.913Z,2.73
2023-01-04T12:25:41.901Z,2.57
2023-01-04T12:28:30.555Z,3.07
2023-01-04T12:31:34.090Z,3.13
2023-01-04T12:34:39.216Z,3.13
2023-01-04T12:37:08.084Z,4.13
2023-01-04T12:39:44.355Z,7.60
2023-01-04T12:42:19.588Z,4.03
2023-01-04T12:45:10.697Z,3.17
2023-01-04T12:48:03.451Z,3.30
2023-01-04T12:50:32.385Z,3.37
2023-01-04T12:53:29.457Z,5.20
2023-01-04T12:55:55.623Z,7.23
2023-01-04T12:59:27.154Z,6.30
2023-01-04T13:02:18.198Z,3.57
2023-01-04T13:04:48.462Z,5.33
2023-01-04T13:07:24.541Z,3.57
2023-01-04T13:09:56.123Z,5.77
2023-01-04T13:12:57.140Z,5.70
2023-01-04T13:15:39.719Z,7.33
2023-01-04T13:18:26.116Z,4.40
2023-01-04T13:20:57.143Z,4.80
2023-01-04T13:23:26.845Z,6.53
2023-01-04T13:25:55.426Z,21.17
2023-01-04T13:28:23.997Z,6.37
2023-01-04T13:31:01.407Z,6.90
2023-01-04T13:33:30.228Z,2.90
2023-01-04T13:36:03.923Z,3.43
2023-01-04T13:38:33.791Z,5.50
2023-01-04T13:41:02.303Z,4.13
2023-01-04T13:43:46.474Z,3.30
2023-01-04T13:46:17.072Z,5.27
2023-01-04T13:48:48.387Z,5.13
2023-01-04T13:51:24.117Z,3.70
2023-01-04T13:53:57.666Z,3.07
2023-01-04T13:56:27.679Z,5.30
2023-01-04T13:58:56.413Z,5.47
2023-01-04T14:01:28.112Z,3.80
2023-01-04T14:03:58.582Z,3.63
2023-01-04T14:06:31.060Z,5.50
2023-01-04T14:09:03.528Z,5.83
2023-01-04T14:11:52.308Z,6.67
2023-01-04T14:14:28.816Z,8.97
2023-01-04T14:17:21.058Z,7.50
2023-01-04T14:19:53.041Z,6.73
2023-01-04T14:22:37.895Z,7.47
2023-01-04T14:25:40.786Z,7.60
2023-01-04T14:31:38.474Z,7.20
2023-01-04T14:34:08.948Z,6.87
2023-01-04T14:36:38.837Z,7.33
2023-01-04T14:39:20.331Z,8.10
2023-01-04T14:41:57.637Z,8.27
2023-01-04T14:44:30.819Z,7.73
2023-01-04T14:47:01.691Z,6.57
2023-01-04T14:49:31.556Z,8.90
2023-01-04T14:52:00.905Z,8.70
2023-01-04T14:54:35.175Z,8.33
2023-01-04T14:57:04.873Z,7.83
2023-01-04T14:59:33.591Z,8.27
2023-01-04T15:02:02.411Z,5.97
2023-01-04T15:04:31.072Z,8.77
2023-01-04T15:07:00.970Z,7.07
2023-01-04T15:09:31.076Z,6.40
2023-01-04T15:11:59.803Z,6.60
2023-01-04T15:14:28.380Z,8.53
2023-01-04T15:16:57.050Z,6.63
2023-01-04T15:19:25.650Z,7.43
2023-01-04T15:21:54.188Z,7.00
2023-01-04T15:24:23.121Z,6.13
2023-01-04T15:26:53.034Z,9.97
2023-01-04T15:29:21.612Z,10.90
2023-01-04T15:31:50.160Z,12.83
2023-01-04T15:34:18.811Z,12.90
2023-01-04T15:36:47.580Z,15.90
2023-01-04T15:39:16.431Z,27.03
2023-01-04T15:42:02.611Z,19.73
2023-01-04T15:44:32.517Z,18.27
2023-01-04T15:47:01.066Z,18.53
2023-01-04T15:49:31.019Z,17.50
2023-01-04T15:51:59.633Z,13.97
2023-01-04T15:54:28.571Z,12.43
2023-01-04T15:56:57.206Z,16.67
2023-01-04T15:59:26.035Z,35.73
2023-01-04T16:01:56.379Z,32.93
2023-01-04T16:04:25.787Z,15.83
2023-01-04T16:06:54.356Z,10.27
2023-01-04T16:09:23.010Z,14.13
2023-01-04T16:12:08.962Z,20.23
2023-01-04T16:14:37.450Z,34.63
2023-01-04T16:17:07.496Z,24.63
2023-01-04T16:19:36.057Z,20.07
2023-01-04T16:22:04.576Z,14.63
2023-01-04T16:27:21.685Z,13.73
2023-01-04T16:29:51.543Z,14.53
2023-01-04T16:32:21.509Z,13.53
2023-01-04T16:34:51.231Z,11.53
2023-01-04T16:37:19.855Z,12.83
2023-01-04T16:40:05.791Z,9.90
2023-01-04T16:42:35.197Z,11.20
2023-01-04T16:45:03.813Z,11.17
2023-01-04T16:47:39.983Z,13.37
2023-01-04T16:50:09.849Z,10.97
2023-01-04T16:52:38.662Z,11.27
2023-01-04T16:55:08.353Z,13.90
2023-01-04T16:57:36.938Z,20.53
2023-01-04T17:00:06.492Z,23.97
2023-01-04T17:02:36.416Z,20.50
2023-01-04T17:05:05.438Z,15.57
2023-01-04T17:07:34.594Z,14.70
2023-01-04T17:10:03.187Z,12.50
2023-01-04T17:12:48.724Z,12.43
2023-01-04T17:18:08.774Z,11.70
2023-01-04T17:20:38.085Z,11.20
2023-01-04T17:23:08.878Z,11.10
2023-01-04T17:25:37.418Z,12.00
2023-01-04T17:28:06.150Z,10.50
2023-01-04T17:30:34.855Z,10.73
2023-01-04T17:33:03.568Z,11.90
2023-01-04T17:35:33.578Z,12.23
2023-01-04T17:38:02.092Z,14.57
2023-01-04T17:40:30.548Z,11.77
2023-01-04T17:43:00.594Z,11.77
2023-01-04T17:45:30.364Z,14.70
2023-01-04T17:47:58.923Z,14.40
2023-01-04T17:50:27.411Z,13.90
2023-01-04T17:52:58.472Z,12.70
2023-01-04T17:55:26.970Z,12.53
2023-01-04T17:57:55.494Z,12.27
2023-01-04T18:00:24.125Z,11.47
2023-01-04T18:02:52.796Z,11.17
2023-01-04T18:05:21.361Z,12.87
2023-01-04T18:07:49.893Z,11.77
2023-01-04T18:10:27.124Z,11.17
2023-01-04T18:13:08.515Z,19.00
2023-01-04T18:15:43.990Z,25.20
2023-01-04T18:18:23.880Z,24.50
2023-01-04T18:20:52.585Z,27.17
2023-01-04T18:23:25.829Z,29.40
2023-01-04T18:25:55.977Z,26.87
2023-01-04T18:28:24.564Z,22.93
2023-01-04T18:30:53.178Z,19.40
2023-01-04T18:33:21.719Z,17.50
2023-01-04T18:35:50.213Z,14.23
2023-01-04T18:38:18.791Z,14.80
2023-01-04T18:40:47.935Z,13.20
2023-01-04T18:43:17.857Z,13.83
2023-01-04T18:45:46.441Z,14.97
2023-01-04T18:48:15.087Z,22.10
2023-01-04T18:50:43.630Z,27.00
2023-01-04T18:53:12.389Z,55.57
2023-01-04T18:55:40.920Z,34.07
2023-01-04T18:58:09.433Z,40.57
2023-01-04T19:00:39.364Z,34.33
2023-01-04T19:03:10.921Z,32.27
2023-01-04T19:05:42.092Z,27.03
2023-01-04T19:08:10.671Z,24.10
2023-01-04T19:10:39.344Z,17.90
2023-01-04T19:13:07.832Z,15.30
2023-01-04T19:15:42.719Z,15.97
2023-01-04T19:18:14.157Z,20.43
2023-01-04T19:20:42.773Z,18.33
2023-01-04T19:23:11.278Z,19.67
2023-01-04T19:25:40.227Z,19.23
2023-01-04T19:28:09.700Z,21.20
2023-01-04T19:30:46.808Z,21.57
2023-01-04T19:33:15.647Z,21.03
2023-01-04T19:35:44.865Z,18.43
2023-01-04T19:38:13.759Z,16.20
2023-01-04T19:40:42.708Z,16.77
2023-01-04T19:43:11.332Z,16.20
2023-01-04T19:45:41.823Z,16.97
2023-01-04T19:48:11.728Z,16.73
2023-01-04T19:50:40.271Z,16.90
2023-01-04T19:53:08.874Z,17.77
2023-01-04T19:55:40.081Z,15.53
2023-01-04T19:58:08.668Z,14.67
2023-01-04T20:00:37.238Z,14.77
2023-01-04T20:03:06.139Z,15.87
2023-01-04T20:05:36.693Z,14.60
2023-01-04T20:08:06.932Z,16.20
2023-01-04T20:10:35.655Z,19.83
2023-01-04T20:13:04.181Z,20.63
2023-01-04T20:15:32.756Z,20.57
2023-01-04T20:18:01.375Z,18.87
2023-01-04T20:20:29.993Z,19.90
2023-01-04T20:23:00.165Z,22.23
2023-01-04T20:25:28.688Z,17.83
2023-01-04T20:27:57.220Z,18.50
2023-01-04T20:30:25.737Z,19.73
2023-01-04T20:32:54.232Z,21.50
2023-01-04T20:35:26.240Z,18.97
2023-01-04T20:37:56.809Z,17.47
2023-01-04T20:40:26.959Z,19.47
2023-01-04T20:43:13.193Z,17.57
2023-01-04T20:45:45.871Z,17.23
2023-01-04T20:48:15.340Z,18.57
2023-01-04T20:50:44.271Z,17.97
2023-01-04T20:53:13.636Z,14.60
2023-01-04T20:55:44.361Z,13.20
2023-01-04T20:58:14.500Z,12.50
2023-01-04T21:00:43.728Z,11.93
2023-01-04T21:03:12.661Z,12.87
2023-01-04T21:05:42.717Z,12.23
2023-01-04T21:08:12.151Z,11.30
2023-01-04T21:10:43.902Z,12.43
2023-01-04T21:13:13.517Z,17.73
2023-01-04T21:15:42.212Z,20.23
2023-01-04T21:18:11.879Z,14.80
2023-01-04T21:20:41.904Z,14.83
2023-01-04T21:23:10.799Z,11.13
2023-01-04T21:25:40.944Z,11.07
2023-01-04T21:28:11.526Z,9.80
2023-01-04T21:30:41.535Z,10.63
2023-01-04T21:33:11.067Z,11.93
2023-01-04T21:35:39.932Z,10.20
2023-01-04T21:38:08.973Z,18.17
2023-01-04T21:40:39.311Z,12.10
2023-01-04T21:43:07.826Z,10.60
2023-01-04T21:45:41.633Z,8.87
2023-01-04T21:48:10.289Z,8.83
2023-01-04T21:50:38.960Z,8.63
2023-01-04T21:53:07.465Z,10.50
2023-01-04T21:55:36.032Z,9.10
2023-01-04T21:58:04.608Z,8.10
2023-01-04T22:00:33.122Z,8.93
2023-01-04T22:03:03.133Z,8.27
2023-01-04T22:05:32.664Z,8.97
2023-01-04T22:08:01.601Z,7.60
2023-01-04T22:10:30.132Z,8.97
2023-01-04T22:12:58.627Z,8.40
2023-01-04T22:15:27.240Z,8.53
2023-01-04T22:17:56.005Z,8.17
2023-01-04T22:20:25.913Z,8.33
2023-01-04T22:22:54.541Z,9.63
2023-01-04T22:25:23.254Z,10.93
2023-01-04T22:27:51.841Z,24.03
2023-01-04T22:30:20.561Z,20.83
2023-01-04T22:32:49.476Z,14.03
2023-01-04T22:35:19.184Z,11.63
2023-01-04T22:37:49.147Z,9.00
2023-01-04T22:40:17.852Z,9.07
2023-01-04T22:42:46.330Z,9.67
2023-01-04T22:45:14.975Z,8.17
2023-01-04T22:47:43.482Z,8.93
2023-01-04T22:50:12.496Z,8.30
2023-01-04T22:52:43.615Z,8.90
2023-01-04T22:55:17.653Z,8.37
2023-01-04T22:57:46.451Z,7.33
2023-01-04T23:00:16.201Z,8.17
2023-01-04T23:02:44.764Z,8.67
2023-01-04T23:05:13.339Z,9.30
2023-01-04T23:07:41.874Z,9.83
2023-01-04T23:10:10.699Z,11.03
2023-01-04T23:12:40.701Z,10.53
2023-01-04T23:15:10.403Z,11.57
2023-01-04T23:17:39.106Z,13.87
2023-01-04T23:20:10.512Z,12.70
2023-01-04T23:22:39.380Z,9.87
2023-01-04T23:25:09.195Z,9.50
2023-01-04T23:27:37.716Z,8.80
2023-01-04T23:30:08.744Z,10.07
2023-01-04T23:32:37.264Z,9.63
2023-01-04T23:35:06.185Z,9.30
2023-01-04T23:37:34.676Z,9.33
2023-01-04T23:40:03.313Z,10.63
2023-01-04T23:42:31.923Z,11.37
2023-01-04T23:45:00.416Z,11.33
2023-01-04T23:47:30.341Z,10.93
2023-01-04T23:49:58.894Z,10.33
2023-01-04T23:52:27.413Z,8.87
2023-01-04T23:54:56.143Z,7.53
2023-01-04T23:57:24.703Z,6.57
2023-01-04T23:59:53.240Z,7.27
